Time;durP1;ratioP1;P1;durP2;ratioP2;P2;SDS_P1;SDS_P2;PMS_P1;PMS_P2;Temp;Humidity;BMP_temperature;BMP_pressure;BME280_temperature;BME280_humidity;BME280_pressure;Samples;Min_cycle;Max_cycle;Signal;HPM_P1;HPM_P2
2022/05/16 00:00:39;;;;;;;3.10;2.22;;;15.80;16.30;;;;;;5088889;27;34116;-74
2022/05/16 00:03:07;;;;;;;3.88;1.92;;;15.80;16.00;;;;;;5089682;28;34146;-73
2022/05/16 00:05:34;;;;;;;1.88;1.75;;;15.80;16.30;;;;;;5068712;28;34216;-74
2022/05/16 00:08:00;;;;;;;2.17;1.98;;;15.70;16.20;;;;;;5068092;28;35991;-74
2022/05/16 00:10:26;;;;;;;2.20;2.05;;;15.70;16.30;;;;;;5102392;28;34261;-74
2022/05/16 00:12:53;;;;;;;3.45;1.98;;;15.60;16.30;;;;;;5119661;27;34103;-74
2022/05/16 00:15:20;;;;;;;4.10;2.20;;;15.60;16.40;;;;;;5118121;27;34120;-74
2022/05/16 00:17:47;;;;;;;3.85;2.20;;;15.60;16.60;;;;;;5139383;27;35532;-74
2022/05/16 00:20:16;;;;;;;4.45;2.00;;;15.50;16.50;;;;;;5089072;27;34150;-74
2022/05/16 00:22:42;;;;;;;2.50;2.05;;;15.50;16.90;;;;;;5076028;28;34164;-73
2022/05/16 00:25:11;;;;;;;3.15;2.00;;;15.50;16.60;;;;;;5103317;28;34340;-73
2022/05/16 00:27:37;;;;;;;3.05;2.10;;;15.40;17.10;;;;;;5085262;28;34380;-73
2022/05/16 00:30:07;;;;;;;3.78;2.25;;;15.40;17.00;;;;;;5086155;28;34361;-73
2022/05/16 00:32:33;;;;;;;2.50;2.30;;;15.40;18.40;;;;;;5114137;27;34302;-74
2022/05/16 00:34:59;;;;;;;3.80;2.30;;;15.40;17.20;;;;;;5114277;27;34062;-74
2022/05/16 00:37:24;;;;;;;4.03;2.00;;;15.40;17.20;;;;;;5102390;27;35855;-74
2022/05/16 00:39:50;;;;;;;2.65;2.08;;;15.50;17.50;;;;;;5102855;27;34165;-73
2022/05/16 00:42:19;;;;;;;2.25;2.05;;;15.50;17.40;;;;;;5087730;28;34011;-73
2022/05/16 00:44:45;;;;;;;2.58;1.98;;;15.50;17.50;;;;;;5106438;28;34260;-73
2022/05/16 00:47:11;;;;;;;2.72;1.90;;;15.50;17.30;;;;;;5096901;27;36367;-73
2022/05/16 00:49:41;;;;;;;2.28;2.08;;;15.50;17.40;;;;;;5108310;27;34787;-73
2022/05/16 00:52:19;;;;;;;3.47;2.25;;;15.50;17.90;;;;;;5109154;27;34242;-73
2022/05/16 00:54:55;;;;;;;3.75;2.35;;;15.50;19.10;;;;;;5107882;27;34323;-73
2022/05/16 00:57:26;;;;;;;3.95;2.10;;;15.50;18.00;;;;;;5088273;28;36925;-73
2022/05/16 01:00:17;;;;;;;4.05;2.30;;;15.50;18.00;;;;;;5122481;27;34103;-73
2022/05/16 01:05:28;;;;;;;3.03;1.95;;;15.50;18.10;;;;;;5106328;28;34211;-73
2022/05/16 01:08:01;;;;;;;2.42;2.13;;;15.50;17.60;;;;;;5119938;27;34837;-73
2022/05/16 01:10:27;;;;;;;2.03;1.90;;;15.50;18.20;;;;;;5108865;27;34219;-74
2022/05/16 01:12:54;;;;;;;10.60;2.53;;;15.60;17.60;;;;;;5111567;27;34146;-73
2022/05/16 01:15:39;;;;;;;3.55;2.42;;;15.60;17.80;;;;;;5090021;27;34157;-74
2022/05/16 01:18:07;;;;;;;4.68;2.28;;;15.50;21.00;;;;;;5108211;27;34570;-74
2022/05/16 01:21:02;;;;;;;3.63;2.30;;;15.60;18.60;;;;;;5123812;27;34115;-75
2022/05/16 01:23:32;;;;;;;3.22;2.08;;;15.50;23.80;;;;;;5125616;27;34123;-76
2022/05/16 01:26:00;;;;;;;4.82;2.13;;;15.50;19.10;;;;;;5125948;27;34086;-76
2022/05/16 01:28:26;;;;;;;5.20;2.22;;;15.50;19.20;;;;;;5114585;27;35694;-74
2022/05/16 01:30:54;;;;;;;4.18;1.80;;;15.50;19.40;;;;;;5121349;27;34054;-75
2022/05/16 01:33:24;;;;;;;3.00;2.15;;;15.50;19.60;;;;;;5089632;27;34214;-75
2022/05/16 01:35:50;;;;;;;2.95;2.65;;;15.50;20.00;;;;;;5110843;27;34347;-76
2022/05/16 01:38:18;;;;;;;2.03;1.92;;;15.50;20.00;;;;;;5105484;28;34290;-76
2022/05/16 01:40:46;;;;;;;2.90;2.13;;;15.50;20.10;;;;;;5104333;28;34357;-76
2022/05/16 01:43:13;;;;;;;3.25;2.22;;;15.50;20.30;;;;;;5087621;28;34172;-74
2022/05/16 01:45:42;;;;;;;3.97;2.58;;;15.50;20.50;;;;;;5087686;28;34137;-76
2022/05/16 01:48:09;;;;;;;2.83;2.22;;;15.50;21.00;;;;;;5104105;28;36462;-76
2022/05/16 01:50:36;;;;;;;2.40;2.10;;;15.50;20.90;;;;;;5104173;28;34256;-76
2022/05/16 01:53:02;;;;;;;2.80;2.20;;;15.50;21.00;;;;;;5105297;27;34125;-75
2022/05/16 01:55:28;;;;;;;2.65;2.30;;;15.50;21.20;;;;;;5105721;28;34339;-75
2022/05/16 01:57:54;;;;;;;3.50;2.17;;;15.50;21.30;;;;;;5087094;28;35526;-75
2022/05/16 02:00:21;;;;;;;3.83;2.25;;;15.50;21.40;;;;;;5086994;28;34240;-76
2022/05/16 02:02:47;;;;;;;2.83;2.10;;;15.60;22.10;;;;;;5086705;28;34351;-75
2022/05/16 02:05:21;;;;;;;5.47;2.60;;;15.60;21.60;;;;;;5087371;28;34192;-76
2022/05/16 02:07:48;;;;;;;2.47;2.13;;;15.50;23.20;;;;;;5104481;28;34167;-76
2022/05/16 02:10:17;;;;;;;3.40;2.47;;;15.60;22.00;;;;;;5103949;28;34220;-76
2022/05/16 02:12:43;;;;;;;4.22;2.20;;;15.60;22.30;;;;;;5103892;28;34461;-76
2022/05/16 02:15:12;;;;;;;3.65;2.30;;;15.60;22.10;;;;;;5103947;28;34376;-76
2022/05/16 02:17:38;;;;;;;2.55;2.35;;;15.60;22.40;;;;;;5103213;28;36469;-75
2022/05/16 02:20:05;;;;;;;2.85;2.28;;;15.60;22.30;;;;;;5103762;28;34230;-74
2022/05/16 02:25:12;;;;;;;2.42;2.22;;;15.70;22.60;;;;;;5103002;28;34257;-75
2022/05/16 02:27:38;;;;;;;2.30;2.05;;;15.70;22.60;;;;;;5086515;28;35763;-76
2022/05/16 02:30:06;;;;;;;2.90;2.22;;;15.70;22.70;;;;;;5086480;28;34103;-76
2022/05/16 02:32:32;;;;;;;2.45;2.25;;;15.70;22.90;;;;;;5089005;27;34100;-76
2022/05/16 02:34:58;;;;;;;4.35;2.25;;;15.70;23.00;;;;;;5086941;28;34180;-76
2022/05/16 02:37:24;;;;;;;3.03;2.63;;;15.70;23.20;;;;;;5086612;28;36663;-76
2022/05/16 02:39:50;;;;;;;4.97;2.17;;;15.70;23.30;;;;;;5103504;28;34080;-76
2022/05/16 02:42:16;;;;;;;3.45;2.47;;;15.70;23.40;;;;;;5086524;28;34084;-76
2022/05/16 02:44:43;;;;;;;2.90;2.20;;;15.70;23.60;;;;;;5104320;27;34230;-76
2022/05/16 02:47:15;;;;;;;2.30;2.10;;;15.70;23.90;;;;;;5086264;28;36539;-76
2022/05/16 02:49:42;;;;;;;5.43;2.40;;;15.70;25.10;;;;;;5086449;28;34115;-76
2022/05/16 02:52:08;;;;;;;2.60;2.40;;;15.70;24.20;;;;;;5103634;28;34121;-76
2022/05/16 02:54:34;;;;;;;2.92;2.45;;;15.70;24.20;;;;;;5090544;27;34146;-76
2022/05/16 02:57:01;;;;;;;4.53;2.60;;;15.70;24.40;;;;;;5106314;27;36053;-76
2022/05/16 02:59:32;;;;;;;2.80;2.42;;;15.70;24.50;;;;;;5106581;27;34167;-76
2022/05/16 03:01:59;;;;;;;3.30;2.00;;;15.70;24.60;;;;;;5124263;27;34328;-75
2022/05/16 03:04:25;;;;;;;2.80;2.08;;;15.60;24.60;;;;;;5105723;27;34717;-75
2022/05/16 03:06:51;;;;;;;7.47;2.45;;;15.70;24.90;;;;;;5106201;27;34853;-76
2022/05/16 03:09:17;;;;;;;4.00;2.42;;;15.70;24.90;;;;;;5070519;28;34164;-76
2022/05/16 03:11:44;;;;;;;5.72;2.80;;;15.70;25.10;;;;;;5103062;27;34094;-75
2022/05/16 03:14:11;;;;;;;2.63;2.42;;;15.60;25.10;;;;;;5086152;28;34547;-76
2022/05/16 03:16:38;;;;;;;3.10;2.33;;;15.60;25.20;;;;;;5073118;28;36389;-75
2022/05/16 03:19:04;;;;;;;2.97;2.67;;;15.60;25.30;;;;;;5120218;27;34201;-76
2022/05/16 03:21:30;;;;;;;4.05;2.67;;;15.60;25.30;;;;;;5069178;28;34292;-76
2022/05/16 03:23:58;;;;;;;3.03;2.63;;;15.60;25.40;;;;;;5102966;28;34201;-75
2022/05/16 03:26:25;;;;;;;4.38;2.50;;;15.60;25.70;;;;;;5087139;27;36028;-76
2022/05/16 03:28:51;;;;;;;3.97;2.63;;;15.60;25.60;;;;;;5090423;28;34235;-75
2022/05/16 03:31:17;;;;;;;4.60;2.88;;;15.60;25.70;;;;;;5105989;27;34178;-74
2022/05/16 03:33:43;;;;;;;4.35;2.80;;;15.60;26.00;;;;;;5106089;27;34094;-76
2022/05/16 03:36:09;;;;;;;3.08;2.72;;;15.60;26.00;;;;;;5097054;28;35923;-74
2022/05/16 03:41:16;;;;;;;2.80;2.55;;;15.60;26.10;;;;;;5103103;28;34312;-75
2022/05/16 03:43:42;;;;;;;3.70;2.60;;;15.60;26.00;;;;;;5103583;28;34127;-75
2022/05/16 03:46:09;;;;;;;2.33;2.13;;;15.70;26.00;;;;;;5085623;28;35709;-75
2022/05/16 03:48:35;;;;;;;3.00;2.50;;;15.70;26.10;;;;;;5119504;27;34095;-76
2022/05/16 03:51:04;;;;;;;3.03;2.53;;;15.70;26.00;;;;;;5086180;28;34303;-75
2022/05/16 03:53:30;;;;;;;4.32;2.63;;;15.70;26.20;;;;;;5100989;27;34435;-76
2022/05/16 03:55:56;;;;;;;3.58;2.70;;;15.70;26.10;;;;;;5088176;28;36348;-75
2022/05/16 03:58:22;;;;;;;2.40;2.20;;;15.70;26.10;;;;;;5103707;28;34216;-76
2022/05/16 04:00:48;;;;;;;4.63;2.30;;;15.70;26.20;;;;;;5101928;28;34527;-76
2022/05/16 04:03:14;;;;;;;2.80;2.50;;;15.70;26.30;;;;;;5102610;28;34387;-76
2022/05/16 04:05:43;;;;;;;3.38;2.78;;;15.70;26.40;;;;;;5085057;28;36031;-76
2022/05/16 04:08:09;;;;;;;2.60;2.40;;;15.70;26.70;;;;;;5103779;28;34188;-76
2022/05/16 04:10:35;;;;;;;3.97;2.53;;;15.60;26.50;;;;;;5118963;27;34128;-76
2022/05/16 04:13:01;;;;;;;2.70;2.50;;;15.60;26.50;;;;;;5105288;27;34028;-76
2022/05/16 04:15:27;;;;;;;4.63;2.50;;;15.60;26.50;;;;;;5105380;27;35517;-75
2022/05/16 04:17:53;;;;;;;4.07;2.50;;;15.70;26.70;;;;;;5105693;27;34268;-75
2022/05/16 04:20:20;;;;;;;4.40;2.55;;;15.70;26.80;;;;;;5089095;28;34350;-75
2022/05/16 04:22:46;;;;;;;6.38;2.65;;;15.70;27.00;;;;;;5093678;28;34527;-75
2022/05/16 04:25:16;;;;;;;4.55;2.40;;;15.70;26.70;;;;;;5105454;28;35741;-75
2022/05/16 04:27:42;;;;;;;3.28;2.28;;;15.70;27.00;;;;;;5088815;28;34015;-75
2022/05/16 04:30:09;;;;;;;2.50;2.30;;;15.70;26.70;;;;;;5105846;28;34145;-76
2022/05/16 04:32:35;;;;;;;2.83;2.60;;;15.70;26.80;;;;;;5105453;28;34171;-75
2022/05/16 04:35:02;;;;;;;4.15;2.35;;;15.80;26.80;;;;;;5138358;27;36515;-75
2022/05/16 04:37:32;;;;;;;4.03;2.63;;;15.80;26.80;;;;;;5088411;28;34247;-76
2022/05/16 04:40:00;;;;;;;3.67;2.55;;;15.70;27.50;;;;;;5088314;28;34243;-75
2022/05/16 04:45:17;;;;;;;2.80;2.50;;;15.80;26.80;;;;;;5105230;28;34014;-75
2022/05/16 04:47:45;;;;;;;2.65;2.40;;;15.80;27.70;;;;;;5091384;27;34304;-76
2022/05/16 04:50:14;;;;;;;3.67;2.50;;;15.80;26.90;;;;;;5092042;27;34262;-76
2022/05/16 04:52:40;;;;;;;4.40;2.67;;;15.90;27.20;;;;;;5108758;27;34137;-75
2022/05/16 04:55:07;;;;;;;2.78;2.47;;;15.90;27.10;;;;;;5126799;27;34347;-75
2022/05/16 04:57:34;;;;;;;4.25;2.78;;;15.90;27.30;;;;;;5091904;27;34096;-76
2022/05/16 04:59:59;;;;;;;6.00;2.63;;;15.90;27.40;;;;;;5108733;27;34208;-76
2022/05/16 05:02:26;;;;;;;6.95;2.90;;;15.90;27.50;;;;;;5121411;27;34780;-76
2022/05/16 05:04:51;;;;;;;3.63;2.50;;;16.00;27.40;;;;;;5121374;27;36556;-76
2022/05/16 05:07:17;;;;;;;3.42;2.55;;;16.00;27.40;;;;;;5123669;27;34273;-75
2022/05/16 05:15:09;;;;;;;5.07;2.65;;;16.20;27.20;;;;;;5109514;27;34797;-76
2022/05/16 05:17:35;;;;;;;5.25;3.13;;;16.30;27.50;;;;;;5090878;27;34318;-76
2022/05/16 05:20:02;;;;;;;4.35;2.95;;;16.30;27.20;;;;;;5108281;27;34307;-76
2022/05/16 05:22:28;;;;;;;4.50;2.88;;;16.40;27.10;;;;;;5091405;27;34523;-76
2022/05/16 05:24:54;;;;;;;6.32;3.00;;;16.50;27.00;;;;;;5108204;27;36311;-75
2022/05/16 05:27:20;;;;;;;3.60;3.28;;;16.70;26.80;;;;;;5107653;27;34257;-76
2022/05/16 05:29:48;;;;;;;4.47;2.97;;;17.00;26.40;;;;;;5108074;27;34060;-76
2022/05/16 05:32:15;;;;;;;5.47;3.00;;;17.20;26.20;;;;;;5108383;27;34080;-75
2022/05/16 05:34:41;;;;;;;4.75;3.00;;;17.30;25.90;;;;;;5090707;27;36219;-76
2022/05/16 05:37:07;;;;;;;4.38;2.75;;;17.30;25.60;;;;;;5101912;27;34317;-76
2022/05/16 05:39:35;;;;;;;2.97;2.67;;;17.40;25.50;;;;;;5114958;27;34143;-75
2022/05/16 05:42:02;;;;;;;5.53;3.30;;;17.90;24.90;;;;;;5113342;27;34152;-76
2022/05/16 05:44:28;;;;;;;3.20;2.55;;;18.50;24.30;;;;;;5090582;27;35810;-75
2022/05/16 05:46:54;;;;;;;3.22;3.03;;;19.30;23.10;;;;;;5097728;27;34254;-76
2022/05/16 05:49:19;;;;;;;3.05;2.53;;;20.10;21.00;;;;;;5070689;28;34211;-76
2022/05/16 05:51:45;;;;;;;5.85;2.80;;;20.90;19.70;;;;;;5121461;27;34532;-76
2022/05/16 05:54:11;;;;;;;4.75;2.53;;;21.70;18.60;;;;;;5117081;27;35844;-77
2022/05/16 05:56:37;;;;;;;3.25;2.55;;;22.30;17.30;;;;;;5086933;28;34124;-76
2022/05/16 05:59:04;;;;;;;3.78;2.42;;;22.90;16.30;;;;;;5122688;27;34620;-76
2022/05/16 06:01:31;;;;;;;4.28;2.85;;;23.50;15.40;;;;;;5090153;27;34180;-76
2022/05/16 06:03:57;;;;;;;3.85;2.60;;;24.10;14.70;;;;;;5090275;27;36535;-77
2022/05/16 06:06:25;;;;;;;5.47;2.58;;;24.50;13.90;;;;;;5104825;27;34245;-77
2022/05/16 06:08:51;;;;;;;5.28;2.35;;;25.00;13.20;;;;;;5070147;28;34366;-77
2022/05/16 06:11:17;;;;;;;3.50;2.40;;;25.40;12.50;;;;;;5104005;28;34202;-77
2022/05/16 06:13:44;;;;;;;2.63;2.42;;;25.70;11.80;;;;;;5086173;28;36549;-76
2022/05/16 06:16:10;;;;;;;4.57;2.42;;;25.80;11.00;;;;;;5104956;28;34145;-76
2022/05/16 06:18:37;;;;;;;4.75;2.30;;;26.00;11.00;;;;;;5133798;27;34194;-77
2022/05/16 06:21:04;;;;;;;6.22;2.67;;;26.20;10.60;;;;;;5090253;27;34135;-76
2022/05/16 06:23:30;;;;;;;3.67;2.30;;;26.40;10.10;;;;;;5090163;27;36517;-76
2022/05/16 06:25:57;;;;;;;2.85;2.03;;;26.60;9.80;;;;;;5107067;27;34240;-76
2022/05/16 06:28:25;;;;;;;4.10;2.30;;;26.90;9.50;;;;;;5124937;27;34134;-76
2022/05/16 06:30:52;;;;;;;8.02;2.70;;;27.30;9.00;;;;;;5107051;27;34287;-76
2022/05/16 06:33:21;;;;;;;3.80;2.30;;;27.50;8.80;;;;;;5125309;27;35168;-76
2022/05/16 06:35:48;;;;;;;6.95;2.88;;;27.80;7.90;;;;;;5106728;27;34137;-76
2022/05/16 06:38:19;;;;;;;4.35;2.47;;;28.00;8.30;;;;;;5105953;27;34201;-76
2022/05/16 06:40:47;;;;;;;4.35;2.60;;;28.20;8.00;;;;;;5087389;28;34241;-76
2022/05/16 06:43:14;;;;;;;4.68;2.55;;;28.30;7.50;;;;;;5069541;28;35642;-77
2022/05/16 06:45:41;;;;;;;2.60;2.40;;;28.40;7.50;;;;;;5086904;28;34409;-76
2022/05/16 06:48:07;;;;;;;5.00;2.70;;;28.70;7.30;;;;;;5069706;28;34493;-77
2022/05/16 06:50:35;;;;;;;3.20;2.90;;;28.90;7.00;;;;;;5086556;28;34547;-77
2022/05/16 06:53:03;;;;;;;3.17;2.40;;;28.90;6.60;;;;;;5119293;27;34220;-76
2022/05/16 06:55:29;;;;;;;3.35;2.45;;;28.80;6.30;;;;;;5089134;27;34101;-77
2022/05/16 06:57:55;;;;;;;2.83;2.42;;;28.60;6.50;;;;;;5106867;27;34013;-76
2022/05/16 07:00:21;;;;;;;4.53;2.88;;;28.70;6.70;;;;;;5089291;28;34153;-76
2022/05/16 07:02:48;;;;;;;3.05;2.50;;;28.80;6.50;;;;;;5085977;28;36922;-76
2022/05/16 07:05:15;;;;;;;4.45;2.67;;;28.80;6.30;;;;;;5104777;28;34212;-76
2022/05/16 07:07:41;;;;;;;4.43;2.60;;;28.70;6.30;;;;;;5119604;27;34386;-76
2022/05/16 07:10:08;;;;;;;3.67;2.90;;;28.80;6.40;;;;;;5104181;28;34221;-78
2022/05/16 07:12:34;;;;;;;4.00;2.60;;;28.80;6.40;;;;;;5103830;27;36314;-77
2022/05/16 07:15:00;;;;;;;4.47;2.33;;;28.70;6.40;;;;;;5086806;28;34206;-77
2022/05/16 07:17:25;;;;;;;2.70;2.38;;;28.50;6.40;;;;;;5119905;27;34307;-76
2022/05/16 07:19:51;;;;;;;3.92;2.50;;;28.50;6.60;;;;;;5086808;28;34083;-78
2022/05/16 07:22:23;;;;;;;4.32;2.85;;;28.30;6.90;;;;;;5103937;28;35120;-76
2022/05/16 07:24:51;;;;;;;4.70;2.80;;;28.40;5.80;;;;;;5103451;27;34205;-76
2022/05/16 07:29:59;;;;;;;2.63;2.42;;;28.40;6.70;;;;;;5103643;28;34102;-76
2022/05/16 07:32:41;;;;;;;6.82;2.85;;;28.30;6.70;;;;;;5102665;28;36855;-76
2022/05/16 07:35:10;;;;;;;5.68;2.42;;;28.10;5.40;;;;;;5120493;27;34207;-76
2022/05/16 07:37:36;;;;;;;4.47;2.50;;;28.10;7.10;;;;;;5104052;28;34177;-75
2022/05/16 07:40:07;;;;;;;5.13;2.40;;;28.20;7.10;;;;;;5085941;28;34108;-76
2022/05/16 07:42:33;;;;;;;3.40;2.40;;;28.30;6.70;;;;;;5102163;27;35479;-74
2022/05/16 07:45:00;;;;;;;4.50;2.65;;;28.50;7.00;;;;;;5068965;28;34097;-76
2022/05/16 07:47:30;;;;;;;3.50;2.70;;;28.80;6.80;;;;;;5085742;28;34266;-76
2022/05/16 07:49:57;;;;;;;3.25;2.30;;;28.80;6.50;;;;;;5120870;27;34454;-75
2022/05/16 07:52:24;;;;;;;4.43;2.65;;;28.90;6.50;;;;;;5089723;28;34861;-75
2022/05/16 07:54:51;;;;;;;5.40;2.90;;;28.90;6.30;;;;;;5123771;27;34072;-75
2022/05/16 07:57:17;;;;;;;4.00;2.42;;;28.80;6.50;;;;;;5089720;28;34180;-77
2022/05/16 07:59:45;;;;;;;3.53;2.30;;;28.80;6.60;;;;;;5127059;27;34094;-78
2022/05/16 08:02:12;;;;;;;4.25;2.75;;;28.70;6.80;;;;;;5124231;27;35789;-75
2022/05/16 08:04:38;;;;;;;5.88;2.50;;;28.90;6.70;;;;;;5106477;28;34182;-77
2022/05/16 08:07:04;;;;;;;5.10;2.38;;;29.00;7.20;;;;;;5090730;27;34212;-76
2022/05/16 08:12:13;;;;;;;3.17;2.20;;;29.30;6.90;;;;;;5106356;27;34256;-75
2022/05/16 08:14:43;;;;;;;8.00;2.30;;;29.30;7.00;;;;;;5089412;28;34784;-76
2022/05/16 08:17:09;;;;;;;2.33;1.83;;;29.40;6.90;;;;;;5089983;27;34527;-78
2022/05/16 08:19:36;;;;;;;2.58;2.10;;;29.50;6.80;;;;;;5090724;28;34165;-77
2022/05/16 08:22:02;;;;;;;3.50;1.85;;;29.50;6.80;;;;;;5100823;27;35884;-78
2022/05/16 08:24:28;;;;;;;5.07;2.35;;;29.50;6.70;;;;;;5089041;28;34401;-77
2022/05/16 08:26:54;;;;;;;5.70;2.35;;;29.40;6.70;;;;;;5094767;27;34154;-77
2022/05/16 08:29:20;;;;;;;5.18;2.40;;;29.40;6.60;;;;;;5093724;27;34076;-76
2022/05/16 08:31:46;;;;;;;3.53;1.90;;;29.40;6.70;;;;;;5093011;27;35704;-77
2022/05/16 08:34:12;;;;;;;5.93;2.25;;;29.20;6.80;;;;;;5089005;28;34013;-79
2022/05/16 08:42:04;;;;;;;4.10;2.15;;;29.30;6.80;;;;;;5124475;27;34833;-76
2022/05/16 08:44:57;;;;;;;9.40;2.25;;;29.30;6.80;;;;;;5109627;27;34349;-76
2022/05/16 08:47:51;;;;;;;5.60;2.00;;;29.30;7.10;;;;;;5111877;27;34244;-79
2022/05/16 08:50:21;;;;;;;3.55;2.15;;;29.20;6.40;;;;;;5125612;27;34051;-77
2022/05/16 08:52:55;;;;;;;4.93;2.67;;;29.20;7.20;;;;;;5089249;28;35971;-76
2022/05/16 08:55:30;;;;;;;6.70;2.90;;;29.00;7.70;;;;;;5124432;27;34166;-77
2022/05/16 08:58:04;;;;;;;5.43;2.50;;;28.90;7.20;;;;;;5106076;27;34088;-76
2022/05/16 09:00:41;;;;;;;5.57;2.60;;;28.80;7.80;;;;;;5128339;27;34180;-75
2022/05/16 09:03:14;;;;;;;8.52;3.00;;;28.60;7.50;;;;;;5084042;27;35734;-77
2022/05/16 09:05:47;;;;;;;8.50;2.78;;;28.60;8.00;;;;;;5127512;27;34499;-76
2022/05/16 09:08:32;;;;;;;12.43;3.00;;;28.50;8.20;;;;;;5110243;27;34260;-78
2022/05/16 09:11:05;;;;;;;7.13;2.80;;;28.30;8.20;;;;;;5109994;27;34354;-77
2022/05/16 09:13:49;;;;;;;6.28;2.83;;;28.10;8.50;;;;;;5128571;27;34334;-77
2022/05/16 09:16:34;;;;;;;6.57;2.83;;;28.10;9.30;;;;;;5092190;27;34029;-76
2022/05/16 09:19:28;;;;;;;5.75;3.15;;;27.90;8.90;;;;;;5101982;27;34209;-76
2022/05/16 09:22:13;;;;;;;5.55;2.97;;;27.40;9.70;;;;;;5093188;27;33991;-75
2022/05/16 09:24:50;;;;;;;3.53;2.50;;;27.10;9.80;;;;;;5109296;27;35629;-75
2022/05/16 09:30:05;;;;;;;5.22;2.63;;;26.70;10.10;;;;;;5128292;27;34368;-76
2022/05/16 09:32:35;;;;;;;3.28;2.63;;;26.50;10.10;;;;;;5092672;27;34256;-78
2022/05/16 09:35:01;;;;;;;3.15;2.75;;;26.40;10.90;;;;;;5120301;27;35832;-77
2022/05/16 09:37:28;;;;;;;6.55;2.95;;;26.40;10.50;;;;;;5088797;28;34186;-75
2022/05/16 09:39:54;;;;;;;5.53;2.75;;;26.20;10.60;;;;;;5124123;27;34459;-74
2022/05/16 09:42:26;;;;;;;3.05;2.35;;;26.20;10.80;;;;;;5108737;27;34144;-73
2022/05/16 09:45:12;;;;;;;6.40;3.00;;;26.10;11.20;;;;;;5075894;28;35581;-74
2022/05/16 09:47:40;;;;;;;3.63;2.80;;;26.00;12.70;;;;;;5071182;27;34203;-76
2022/05/16 09:50:20;;;;;;;4.57;2.50;;;26.00;11.40;;;;;;5089121;28;34032;-76
2022/05/16 09:52:52;;;;;;;2.90;2.42;;;25.80;12.20;;;;;;5122648;27;34541;-75
2022/05/16 09:55:28;;;;;;;5.05;2.95;;;26.00;11.60;;;;;;5074759;28;35727;-76
2022/05/16 09:58:00;;;;;;;4.95;2.58;;;26.10;12.20;;;;;;5106279;28;34124;-75
2022/05/16 10:00:40;;;;;;;5.45;3.78;;;26.10;11.60;;;;;;5089421;28;34058;-75
2022/05/16 10:03:30;;;;;;;4.95;3.10;;;26.10;12.00;;;;;;5085311;28;34199;-76
2022/05/16 10:05:58;;;;;;;4.53;3.10;;;26.00;12.60;;;;;;5083777;28;35961;-74
2022/05/16 10:08:30;;;;;;;4.65;3.30;;;26.00;11.70;;;;;;5071050;28;34191;-75
2022/05/16 10:10:59;;;;;;;3.95;3.35;;;25.70;11.80;;;;;;5087982;28;34140;-78
2022/05/16 10:13:25;;;;;;;6.40;3.38;;;25.40;11.90;;;;;;5104949;28;34159;-78
2022/05/16 10:15:55;;;;;;;7.15;3.45;;;25.20;12.20;;;;;;5087038;28;35521;-77
2022/05/16 10:18:23;;;;;;;4.22;3.05;;;25.00;12.80;;;;;;5106543;28;34163;-77
2022/05/16 10:20:58;;;;;;;6.25;3.30;;;24.80;12.80;;;;;;5105932;27;34161;-77
2022/05/16 10:23:29;;;;;;;6.13;3.95;;;24.70;13.50;;;;;;5087776;28;34068;-76
2022/05/16 10:26:01;;;;;;;5.53;3.40;;;24.50;14.70;;;;;;5087392;28;36340;-80
2022/05/16 10:28:40;;;;;;;5.05;3.40;;;24.40;14.60;;;;;;5121697;27;34176;-78
2022/05/16 10:33:59;;;;;;;9.95;3.70;;;24.20;15.50;;;;;;5104652;28;34036;-76
2022/05/16 10:36:30;;;;;;;5.20;3.47;;;24.10;14.30;;;;;;5086934;28;35757;-75
2022/05/16 10:39:15;;;;;;;7.03;3.53;;;24.10;14.70;;;;;;5087277;28;34168;-77
2022/05/16 10:41:54;;;;;;;7.75;3.50;;;24.20;16.40;;;;;;5086868;28;34230;-76
2022/05/16 10:44:31;;;;;;;7.85;3.38;;;24.20;15.10;;;;;;5105819;28;34038;-79
2022/05/16 10:47:13;;;;;;;5.50;3.35;;;24.20;15.70;;;;;;5086649;28;35535;-76
2022/05/16 10:49:55;;;;;;;6.63;3.80;;;24.10;16.40;;;;;;5124902;27;34477;-75
2022/05/16 10:52:34;;;;;;;5.03;3.30;;;24.00;15.10;;;;;;5142359;27;34323;-77
2022/05/16 10:55:00;;;;;;;7.65;3.60;;;24.00;15.40;;;;;;5108396;27;34098;-77
2022/05/16 10:57:55;;;;;;;6.65;3.78;;;24.00;14.20;;;;;;5107680;27;36318;-77
2022/05/16 11:00:32;;;;;;;5.00;3.58;;;24.00;16.70;;;;;;5102915;27;34332;-74
2022/05/16 11:03:22;;;;;;;8.07;3.30;;;24.10;15.30;;;;;;5117658;27;34052;-77
2022/05/16 11:06:11;;;;;;;5.30;3.80;;;24.10;16.50;;;;;;5126024;27;34186;-75
2022/05/16 11:08:46;;;;;;;5.32;3.38;;;24.00;16.00;;;;;;5125245;27;34290;-77
2022/05/16 11:11:36;;;;;;;5.15;3.55;;;23.80;15.80;;;;;;5107357;27;34079;-75
2022/05/16 11:14:15;;;;;;;5.20;3.28;;;23.80;15.70;;;;;;5100166;27;34503;-77
2022/05/16 11:16:41;;;;;;;4.53;3.50;;;23.70;15.50;;;;;;5125687;27;34263;-75
2022/05/16 11:19:28;;;;;;;8.13;3.50;;;23.50;14.60;;;;;;5107153;27;35882;-75
2022/05/16 11:22:13;;;;;;;6.20;3.35;;;23.60;15.80;;;;;;5090362;27;34079;-76
2022/05/16 11:24:52;;;;;;;8.05;3.80;;;23.60;16.10;;;;;;5106626;27;34232;-77
2022/05/16 11:27:38;;;;;;;6.22;3.15;;;23.50;15.70;;;;;;5107616;27;34140;-75
2022/05/16 11:30:21;;;;;;;4.18;3.38;;;23.50;15.30;;;;;;5092631;27;35950;-76
2022/05/16 11:33:07;;;;;;;5.18;3.25;;;23.30;16.70;;;;;;5106414;27;34356;-76
2022/05/16 11:35:49;;;;;;;7.10;3.95;;;23.20;16.90;;;;;;5107064;27;34354;-76
2022/05/16 11:38:28;;;;;;;6.30;3.65;;;23.10;16.60;;;;;;5107290;27;34376;-75
2022/05/16 11:41:14;;;;;;;7.65;3.42;;;23.10;16.40;;;;;;5089780;27;35793;-77
2022/05/16 11:43:44;;;;;;;4.70;3.13;;;23.10;17.20;;;;;;5090464;27;34484;-77
2022/05/16 11:46:32;;;;;;;5.40;3.30;;;23.00;16.20;;;;;;5106774;27;34268;-76
2022/05/16 11:49:26;;;;;;;6.60;3.40;;;23.10;17.60;;;;;;5107325;27;34514;-77
2022/05/16 11:52:21;;;;;;;5.20;3.50;;;23.10;17.40;;;;;;5107061;27;36540;-74
2022/05/16 11:54:58;;;;;;;8.52;3.58;;;23.00;17.50;;;;;;5106810;27;34211;-77
2022/05/16 12:03:15;;;;;;;4.90;3.42;;;23.20;16.50;;;;;;5123545;27;35854;-75
2022/05/16 12:05:48;;;;;;;5.10;3.38;;;23.30;17.50;;;;;;5106648;27;33938;-75
2022/05/16 12:08:32;;;;;;;6.55;3.30;;;23.30;16.30;;;;;;5106175;27;34322;-74
2022/05/16 12:11:13;;;;;;;4.30;3.53;;;23.30;15.90;;;;;;5124418;27;34379;-76
2022/05/16 12:14:05;;;;;;;4.90;2.78;;;23.40;17.10;;;;;;5088895;27;36377;-74
2022/05/16 12:16:42;;;;;;;11.07;3.50;;;23.30;16.80;;;;;;5124090;27;34121;-76
2022/05/16 12:19:29;;;;;;;5.53;3.25;;;23.10;16.00;;;;;;5106501;27;34075;-76
2022/05/16 12:22:03;;;;;;;4.88;3.25;;;23.00;16.90;;;;;;5106846;27;34159;-74
2022/05/16 12:24:40;;;;;;;4.38;2.80;;;22.90;15.90;;;;;;5106484;27;35540;-74
2022/05/16 12:27:23;;;;;;;4.28;3.08;;;22.90;16.20;;;;;;5124559;27;34168;-74
2022/05/16 12:29:53;;;;;;;5.68;3.20;;;22.80;16.00;;;;;;5105703;27;34500;-77
2022/05/16 12:32:40;;;;;;;3.08;2.78;;;22.70;16.30;;;;;;5124532;27;34146;-76
2022/05/16 12:35:13;;;;;;;5.78;3.20;;;22.80;16.30;;;;;;5091954;27;35957;-76
2022/05/16 12:37:39;;;;;;;3.95;3.10;;;22.80;16.80;;;;;;5107693;27;34183;-74
2022/05/16 12:40:28;;;;;;;3.90;3.25;;;22.80;16.40;;;;;;5109573;27;34443;-74
2022/05/16 12:43:23;;;;;;;4.60;3.15;;;22.90;17.70;;;;;;5092004;27;34072;-75
2022/05/16 12:46:15;;;;;;;4.00;3.47;;;23.00;18.10;;;;;;5112517;27;34114;-77
2022/05/16 12:49:16;;;;;;;4.88;3.22;;;23.20;17.10;;;;;;5113720;27;34193;-73
2022/05/16 12:51:56;;;;;;;7.47;3.47;;;23.50;17.00;;;;;;5112777;27;33740;-76
2022/05/16 12:54:46;;;;;;;5.80;3.83;;;23.80;16.80;;;;;;5109270;27;34021;-75
2022/05/16 12:57:35;;;;;;;5.60;3.38;;;24.00;15.70;;;;;;5092799;27;35530;-76
2022/05/16 13:00:16;;;;;;;5.75;3.40;;;24.20;16.00;;;;;;5092210;27;34400;-76
2022/05/16 13:03:13;;;;;;;6.07;3.17;;;24.30;15.30;;;;;;5108843;27;34173;-75
2022/05/16 13:05:47;;;;;;;6.85;3.55;;;24.20;15.10;;;;;;5108475;27;34380;-75
2022/05/16 13:08:26;;;;;;;5.82;3.38;;;24.10;15.00;;;;;;5091658;27;35597;-75
2022/05/16 13:11:12;;;;;;;7.70;3.42;;;24.10;15.30;;;;;;5109785;27;34404;-77
2022/05/16 13:14:07;;;;;;;4.43;3.47;;;24.00;14.70;;;;;;5108597;27;34197;-76
2022/05/16 13:16:37;;;;;;;4.07;3.30;;;23.80;15.50;;;;;;5093987;27;34453;-76
2022/05/16 13:19:12;;;;;;;6.05;3.70;;;23.80;15.00;;;;;;5109001;27;35958;-75
2022/05/16 13:21:50;;;;;;;5.65;3.45;;;23.70;15.60;;;;;;5108698;27;34294;-74
2022/05/16 13:24:18;;;;;;;3.92;3.53;;;23.80;15.50;;;;;;5093639;27;34156;-73
2022/05/16 13:29:34;;;;;;;3.95;3.50;;;23.70;15.60;;;;;;5125915;27;34789;-76
2022/05/16 13:32:10;;;;;;;5.45;3.28;;;23.80;15.10;;;;;;5109643;27;34652;-74
2022/05/16 13:34:50;;;;;;;3.60;3.05;;;23.80;15.60;;;;;;5127249;27;34196;-75
2022/05/16 13:37:20;;;;;;;5.22;3.38;;;23.80;15.70;;;;;;5092554;27;34105;-75
2022/05/16 13:39:53;;;;;;;4.53;3.40;;;23.70;15.40;;;;;;5108377;27;35953;-75
2022/05/16 13:42:21;;;;;;;5.78;3.85;;;23.60;15.20;;;;;;5126815;27;34124;-75
2022/05/16 13:44:48;;;;;;;7.10;3.50;;;23.50;15.30;;;;;;5108083;27;34554;-76
2022/05/16 13:47:22;;;;;;;5.22;3.47;;;23.40;15.30;;;;;;5108805;27;34418;-76
2022/05/16 13:49:48;;;;;;;6.57;3.35;;;23.30;15.80;;;;;;5108028;27;35949;-75